N585K LFBD-LSGG
Flight info
| Callsign | N585K |
|---|---|
| Flight time | 1h 32m |
| Altitude | 19000 |
| Route | OBLOC G39 SECHE/N0282F270 DCT NARAK/N0282F260 DCT MEN G53 AGREV/N0257F180 G53 ETREK/N0284F260 G53 LTP Z16 BELUS |
| Aircraft | B60T/L-SDFGRY/C |
Departure
| Time | 2026-05-05 15:05 |
|---|---|
| Airport | Bordeaux–Mérignac Airport (LFBD) |
Arrival
| Time | 2026-05-05 16:37 |
|---|---|
| Airport | Geneva International Airport (LSGG) |
| Time | Latitude | Longitude | Altitude | Speed | Heading |
|---|---|---|---|---|---|
| 2026-05-05 14:57 | 44.83626 | -0.69816 | 155 ft | 0 kts | 226° |
| 2026-05-05 15:03 | 44.83623 | -0.69822 | 155 ft | 0 kts | 240° |
| 2026-05-05 15:03 | 44.83648 | -0.69877 | 155 ft | 17 kts | 316° |
| 2026-05-05 15:03 | 44.83674 | -0.69961 | 155 ft | 2 kts | 227° |
| 2026-05-05 15:03 | 44.83665 | -0.70010 | 155 ft | 12 kts | 322° |
| 2026-05-05 15:04 | 44.83776 | -0.70076 | 154 ft | 16 kts | 335° |
| 2026-05-05 15:04 | 44.83846 | -0.70135 | 156 ft | 8 kts | 269° |
| 2026-05-05 15:04 | 44.83818 | -0.70178 | 155 ft | 0 kts | 226° |
| 2026-05-05 15:05 | 44.83505 | -0.70612 | 188 ft | 94 kts | 225° |
| 2026-05-05 15:05 | 44.82975 | -0.71298 | 707 ft | 113 kts | 230° |
| 2026-05-05 15:05 | 44.82388 | -0.72185 | 1330 ft | 132 kts | 231° |
| 2026-05-05 15:06 | 44.81725 | -0.73165 | 1975 ft | 142 kts | 229° |
| 2026-05-05 15:06 | 44.81057 | -0.74153 | 2823 ft | 135 kts | 233° |
| 2026-05-05 15:06 | 44.80430 | -0.75162 | 3569 ft | 142 kts | 233° |
| 2026-05-05 15:06 | 44.79712 | -0.76165 | 4218 ft | 148 kts | 225° |
| 2026-05-05 15:07 | 44.78947 | -0.77154 | 4911 ft | 150 kts | 227° |
| 2026-05-05 15:07 | 44.78205 | -0.78199 | 5585 ft | 151 kts | 228° |
| 2026-05-05 15:07 | 44.77430 | -0.79207 | 6275 ft | 153 kts | 218° |
| 2026-05-05 15:07 | 44.76454 | -0.79843 | 6924 ft | 157 kts | 199° |
| 2026-05-05 15:08 | 44.75304 | -0.80058 | 7177 ft | 187 kts | 184° |
| 2026-05-05 15:08 | 44.73980 | -0.79818 | 7438 ft | 202 kts | 163° |
| 2026-05-05 15:08 | 44.72809 | -0.78593 | 7451 ft | 222 kts | 128° |
| 2026-05-05 15:08 | 44.72023 | -0.76666 | 7465 ft | 231 kts | 120° |
| 2026-05-05 15:09 | 44.71165 | -0.74744 | 7474 ft | 234 kts | 127° |
| 2026-05-05 15:09 | 44.70196 | -0.72902 | 7482 ft | 235 kts | 129° |
| 2026-05-05 15:09 | 44.69208 | -0.71077 | 7530 ft | 234 kts | 128° |
| 2026-05-05 15:09 | 44.68186 | -0.69314 | 7572 ft | 231 kts | 138° |
| 2026-05-05 15:10 | 44.67171 | -0.67559 | 7583 ft | 234 kts | 122° |
| 2026-05-05 15:10 | 44.66420 | -0.65568 | 7889 ft | 223 kts | 114° |
| 2026-05-05 15:10 | 44.66064 | -0.63513 | 8386 ft | 214 kts | 95° |
| 2026-05-05 15:10 | 44.66103 | -0.61456 | 8865 ft | 209 kts | 84° |
| 2026-05-05 15:11 | 44.66187 | -0.60112 | 9162 ft | 208 kts | 85° |
| 2026-05-05 15:11 | 44.66291 | -0.57412 | 9762 ft | 207 kts | 87° |
| 2026-05-05 15:11 | 44.66353 | -0.55397 | 10176 ft | 206 kts | 87° |
| 2026-05-05 15:11 | 44.66400 | -0.54061 | 10445 ft | 207 kts | 87° |
| 2026-05-05 15:12 | 44.66472 | -0.52042 | 10857 ft | 207 kts | 87° |
| 2026-05-05 15:12 | 44.66540 | -0.50026 | 11263 ft | 207 kts | 88° |
| 2026-05-05 15:12 | 44.66610 | -0.48001 | 11682 ft | 208 kts | 88° |
| 2026-05-05 15:12 | 44.66679 | -0.45973 | 12098 ft | 208 kts | 88° |
| 2026-05-05 15:13 | 44.66771 | -0.43252 | 12654 ft | 209 kts | 88° |
| 2026-05-05 15:13 | 44.66816 | -0.41909 | 12928 ft | 208 kts | 88° |
| 2026-05-05 15:13 | 44.66884 | -0.39873 | 13351 ft | 209 kts | 88° |
| 2026-05-05 15:13 | 44.66952 | -0.37831 | 13776 ft | 210 kts | 88° |
| 2026-05-05 15:14 | 44.67019 | -0.35783 | 14153 ft | 210 kts | 89° |
| 2026-05-05 15:14 | 44.67086 | -0.33734 | 14540 ft | 210 kts | 89° |
| 2026-05-05 15:14 | 44.67153 | -0.31687 | 14930 ft | 210 kts | 89° |
| 2026-05-05 15:14 | 44.67220 | -0.29646 | 15320 ft | 209 kts | 90° |
| 2026-05-05 15:15 | 44.67287 | -0.27603 | 15714 ft | 209 kts | 90° |
| 2026-05-05 15:15 | 44.67352 | -0.25562 | 16104 ft | 209 kts | 90° |
| 2026-05-05 15:15 | 44.67416 | -0.23525 | 16498 ft | 208 kts | 90° |
| 2026-05-05 15:15 | 44.67481 | -0.21493 | 16906 ft | 208 kts | 91° |
| 2026-05-05 15:16 | 44.67546 | -0.19465 | 17307 ft | 208 kts | 91° |
| 2026-05-05 15:16 | 44.67609 | -0.17438 | 17710 ft | 208 kts | 91° |
| 2026-05-05 15:16 | 44.67576 | -0.15414 | 18111 ft | 206 kts | 107° |
| 2026-05-05 15:16 | 44.67071 | -0.13568 | 18489 ft | 201 kts | 122° |
| 2026-05-05 15:17 | 44.66442 | -0.11809 | 18878 ft | 202 kts | 121° |
| 2026-05-05 15:17 | 44.65823 | -0.10039 | 19241 ft | 202 kts | 121° |
| 2026-05-05 15:17 | 44.65201 | -0.08271 | 19608 ft | 202 kts | 121° |
| 2026-05-05 15:17 | 44.64584 | -0.06528 | 19976 ft | 202 kts | 121° |
| 2026-05-05 15:18 | 44.63960 | -0.04764 | 20344 ft | 202 kts | 121° |
| 2026-05-05 15:18 | 44.63328 | -0.02973 | 20732 ft | 202 kts | 121° |
| 2026-05-05 15:18 | 44.62711 | -0.01228 | 21096 ft | 202 kts | 122° |
| 2026-05-05 15:18 | 44.62077 | 0.00563 | 21467 ft | 202 kts | 122° |
| 2026-05-05 15:19 | 44.61451 | 0.02331 | 21843 ft | 202 kts | 122° |
| 2026-05-05 15:19 | 44.60831 | 0.04077 | 22219 ft | 204 kts | 122° |
| 2026-05-05 15:19 | 44.60196 | 0.05867 | 22613 ft | 206 kts | 122° |
| 2026-05-05 15:19 | 44.59556 | 0.07671 | 23038 ft | 207 kts | 122° |
| 2026-05-05 15:20 | 44.58913 | 0.09481 | 23483 ft | 208 kts | 122° |
| 2026-05-05 15:20 | 44.58268 | 0.11294 | 23875 ft | 208 kts | 122° |
| 2026-05-05 15:20 | 44.57623 | 0.13109 | 24239 ft | 208 kts | 122° |
| 2026-05-05 15:20 | 44.56976 | 0.14929 | 24585 ft | 209 kts | 122° |
| 2026-05-05 15:21 | 44.56326 | 0.16752 | 24924 ft | 209 kts | 122° |
| 2026-05-05 15:21 | 44.55681 | 0.18566 | 25258 ft | 207 kts | 122° |
| 2026-05-05 15:21 | 44.55035 | 0.20377 | 25581 ft | 209 kts | 123° |
| 2026-05-05 15:21 | 44.54383 | 0.22202 | 25909 ft | 210 kts | 122° |
| 2026-05-05 15:22 | 44.53728 | 0.24036 | 26251 ft | 211 kts | 123° |
| 2026-05-05 15:22 | 44.53071 | 0.25874 | 26583 ft | 211 kts | 123° |
| 2026-05-05 15:22 | 44.52412 | 0.27716 | 26909 ft | 212 kts | 123° |
| 2026-05-05 15:22 | 44.51725 | 0.29626 | 26936 ft | 226 kts | 123° |
| 2026-05-05 15:23 | 44.51000 | 0.31639 | 26945 ft | 237 kts | 122° |
| 2026-05-05 15:23 | 44.50246 | 0.33744 | 26949 ft | 246 kts | 122° |
| 2026-05-05 15:23 | 44.49470 | 0.35911 | 26950 ft | 252 kts | 122° |
| 2026-05-05 15:23 | 44.48678 | 0.38120 | 26948 ft | 256 kts | 122° |
| 2026-05-05 15:24 | 44.47873 | 0.40358 | 26946 ft | 259 kts | 122° |
| 2026-05-05 15:24 | 44.47060 | 0.42618 | 26953 ft | 261 kts | 122° |
| 2026-05-05 15:24 | 44.46244 | 0.44890 | 26957 ft | 262 kts | 122° |
| 2026-05-05 15:24 | 44.45424 | 0.47165 | 26957 ft | 262 kts | 122° |
| 2026-05-05 15:25 | 44.44602 | 0.49445 | 26958 ft | 263 kts | 122° |
| 2026-05-05 15:25 | 44.43862 | 0.51790 | 26959 ft | 267 kts | 111° |
| 2026-05-05 15:25 | 44.43534 | 0.54373 | 26959 ft | 271 kts | 103° |
| 2026-05-05 15:25 | 44.43256 | 0.56981 | 26961 ft | 271 kts | 104° |
| 2026-05-05 15:26 | 44.42961 | 0.59578 | 26958 ft | 271 kts | 104° |
| 2026-05-05 15:26 | 44.42668 | 0.62178 | 26960 ft | 271 kts | 104° |
| 2026-05-05 15:26 | 44.42380 | 0.64778 | 26960 ft | 270 kts | 104° |
| 2026-05-05 15:26 | 44.42091 | 0.67376 | 26953 ft | 270 kts | 104° |
| 2026-05-05 15:27 | 44.41800 | 0.69968 | 26952 ft | 270 kts | 104° |
| 2026-05-05 15:27 | 44.41507 | 0.72563 | 26953 ft | 270 kts | 104° |
| 2026-05-05 15:27 | 44.41216 | 0.75152 | 26949 ft | 270 kts | 104° |
| 2026-05-05 15:27 | 44.40923 | 0.77746 | 26947 ft | 270 kts | 104° |
| 2026-05-05 15:28 | 44.40631 | 0.80333 | 26942 ft | 270 kts | 104° |
| 2026-05-05 15:28 | 44.40338 | 0.82921 | 26941 ft | 269 kts | 104° |
| 2026-05-05 15:28 | 44.40045 | 0.85501 | 26936 ft | 268 kts | 104° |
| 2026-05-05 15:28 | 44.39752 | 0.88073 | 26942 ft | 268 kts | 104° |
| 2026-05-05 15:29 | 44.39459 | 0.90645 | 26942 ft | 268 kts | 104° |
| 2026-05-05 15:29 | 44.39166 | 0.93218 | 26938 ft | 268 kts | 104° |
| 2026-05-05 15:29 | 44.38871 | 0.95789 | 26934 ft | 268 kts | 105° |
| 2026-05-05 15:29 | 44.38577 | 0.98355 | 26929 ft | 268 kts | 104° |
| 2026-05-05 15:30 | 44.38281 | 1.00925 | 26929 ft | 268 kts | 105° |
| 2026-05-05 15:30 | 44.37985 | 1.03498 | 26930 ft | 268 kts | 105° |
| 2026-05-05 15:30 | 44.37688 | 1.06066 | 26931 ft | 268 kts | 105° |
| 2026-05-05 15:30 | 44.37392 | 1.08638 | 26928 ft | 267 kts | 105° |
| 2026-05-05 15:31 | 44.37094 | 1.11203 | 26922 ft | 267 kts | 105° |
| 2026-05-05 15:31 | 44.36797 | 1.13757 | 26923 ft | 267 kts | 105° |
| 2026-05-05 15:31 | 44.36499 | 1.16324 | 26925 ft | 267 kts | 105° |
| 2026-05-05 15:31 | 44.36200 | 1.18886 | 26920 ft | 267 kts | 105° |
| 2026-05-05 15:32 | 44.35901 | 1.21448 | 26926 ft | 267 kts | 105° |
| 2026-05-05 15:32 | 44.35600 | 1.24013 | 26923 ft | 267 kts | 105° |
| 2026-05-05 15:32 | 44.35300 | 1.26570 | 26922 ft | 267 kts | 105° |
| 2026-05-05 15:32 | 44.35001 | 1.29124 | 26924 ft | 267 kts | 105° |
| 2026-05-05 15:33 | 44.34700 | 1.31677 | 26921 ft | 267 kts | 105° |
| 2026-05-05 15:33 | 44.34397 | 1.34240 | 26917 ft | 267 kts | 105° |
| 2026-05-05 15:33 | 44.34095 | 1.36797 | 26918 ft | 267 kts | 105° |
| 2026-05-05 15:33 | 44.33792 | 1.39349 | 26918 ft | 267 kts | 105° |
| 2026-05-05 15:34 | 44.33489 | 1.41908 | 26920 ft | 267 kts | 105° |
| 2026-05-05 15:34 | 44.33186 | 1.44455 | 26918 ft | 267 kts | 105° |
| 2026-05-05 15:34 | 44.32881 | 1.47014 | 26916 ft | 266 kts | 105° |
| 2026-05-05 15:34 | 44.32576 | 1.49564 | 26919 ft | 266 kts | 105° |
| 2026-05-05 15:35 | 44.32271 | 1.52113 | 26905 ft | 266 kts | 105° |
| 2026-05-05 15:35 | 44.31966 | 1.54665 | 26918 ft | 267 kts | 106° |
| 2026-05-05 15:35 | 44.31659 | 1.57220 | 26920 ft | 267 kts | 106° |
| 2026-05-05 15:35 | 44.31351 | 1.59773 | 26920 ft | 267 kts | 106° |
| 2026-05-05 15:36 | 44.31044 | 1.62323 | 26914 ft | 267 kts | 106° |
| 2026-05-05 15:36 | 44.30736 | 1.64871 | 26916 ft | 266 kts | 106° |
| 2026-05-05 15:36 | 44.30427 | 1.67425 | 26915 ft | 266 kts | 106° |
| 2026-05-05 15:36 | 44.30118 | 1.69969 | 26920 ft | 266 kts | 106° |
| 2026-05-05 15:37 | 44.29808 | 1.72517 | 26917 ft | 266 kts | 106° |
| 2026-05-05 15:37 | 44.29709 | 1.75113 | 26919 ft | 274 kts | 89° |
| 2026-05-05 15:37 | 44.30154 | 1.77722 | 26921 ft | 279 kts | 76° |
| 2026-05-05 15:37 | 44.30755 | 1.80281 | 26922 ft | 279 kts | 77° |
| 2026-05-05 15:38 | 44.31350 | 1.82884 | 26921 ft | 283 kts | 77° |
| 2026-05-05 15:38 | 44.31945 | 1.85518 | 26920 ft | 286 kts | 77° |
| 2026-05-05 15:38 | 44.32550 | 1.88178 | 26921 ft | 288 kts | 77° |
| 2026-05-05 15:38 | 44.33158 | 1.90842 | 26922 ft | 289 kts | 77° |
| 2026-05-05 15:39 | 44.33768 | 1.93528 | 26923 ft | 290 kts | 77° |
| 2026-05-05 15:39 | 44.34377 | 1.96214 | 26926 ft | 290 kts | 77° |
| 2026-05-05 15:39 | 44.34986 | 1.98905 | 26925 ft | 291 kts | 77° |
| 2026-05-05 15:39 | 44.35595 | 2.01597 | 26922 ft | 291 kts | 77° |
| 2026-05-05 15:40 | 44.36203 | 2.04290 | 26924 ft | 291 kts | 77° |
| 2026-05-05 15:40 | 44.36812 | 2.06986 | 26923 ft | 291 kts | 77° |
| 2026-05-05 15:40 | 44.37408 | 2.09632 | 26926 ft | 290 kts | 77° |
| 2026-05-05 15:40 | 44.38024 | 2.12369 | 26924 ft | 290 kts | 77° |
| 2026-05-05 15:41 | 44.38627 | 2.15049 | 26927 ft | 290 kts | 77° |
| 2026-05-05 15:41 | 44.39231 | 2.17743 | 26923 ft | 290 kts | 77° |
| 2026-05-05 15:41 | 44.39834 | 2.20430 | 26925 ft | 290 kts | 77° |
| 2026-05-05 15:41 | 44.40437 | 2.23121 | 26930 ft | 289 kts | 77° |
| 2026-05-05 15:42 | 44.41038 | 2.25809 | 26926 ft | 289 kts | 77° |
| 2026-05-05 15:42 | 44.41637 | 2.28490 | 26928 ft | 289 kts | 77° |
| 2026-05-05 15:42 | 44.42235 | 2.31170 | 26928 ft | 289 kts | 77° |
| 2026-05-05 15:42 | 44.42833 | 2.33853 | 26931 ft | 289 kts | 77° |
| 2026-05-05 15:43 | 44.43432 | 2.36543 | 26929 ft | 289 kts | 78° |
| 2026-05-05 15:43 | 44.44027 | 2.39219 | 26930 ft | 289 kts | 78° |
| 2026-05-05 15:43 | 44.44615 | 2.41869 | 26931 ft | 289 kts | 77° |
| 2026-05-05 15:43 | 44.45218 | 2.44589 | 26931 ft | 289 kts | 78° |
| 2026-05-05 15:44 | 44.45803 | 2.47234 | 26937 ft | 288 kts | 78° |
| 2026-05-05 15:44 | 44.46405 | 2.49953 | 26935 ft | 289 kts | 78° |
| 2026-05-05 15:44 | 44.46992 | 2.52607 | 26936 ft | 289 kts | 78° |
| 2026-05-05 15:44 | 44.47583 | 2.55291 | 26932 ft | 289 kts | 78° |
| 2026-05-05 15:45 | 44.48183 | 2.58013 | 26933 ft | 289 kts | 78° |
| 2026-05-05 15:45 | 44.48770 | 2.60677 | 26927 ft | 289 kts | 78° |
| 2026-05-05 15:45 | 44.49356 | 2.63345 | 26936 ft | 287 kts | 78° |
| 2026-05-05 15:45 | 44.49952 | 2.66061 | 26933 ft | 288 kts | 78° |
| 2026-05-05 15:46 | 44.50532 | 2.68709 | 26933 ft | 289 kts | 78° |
| 2026-05-05 15:46 | 44.51128 | 2.71432 | 26926 ft | 289 kts | 78° |
| 2026-05-05 15:46 | 44.51716 | 2.74120 | 26925 ft | 289 kts | 78° |
| 2026-05-05 15:46 | 44.52304 | 2.76811 | 26923 ft | 289 kts | 78° |
| 2026-05-05 15:47 | 44.52891 | 2.79506 | 26926 ft | 289 kts | 78° |
| 2026-05-05 15:47 | 44.53280 | 2.81289 | 26924 ft | 290 kts | 78° |
| 2026-05-05 15:47 | 44.54067 | 2.84909 | 26930 ft | 290 kts | 78° |
| 2026-05-05 15:47 | 44.54656 | 2.87616 | 26922 ft | 290 kts | 78° |
| 2026-05-05 15:48 | 44.55245 | 2.90329 | 26923 ft | 291 kts | 78° |
| 2026-05-05 15:48 | 44.55833 | 2.93043 | 26916 ft | 291 kts | 78° |
| 2026-05-05 15:48 | 44.56419 | 2.95752 | 26915 ft | 291 kts | 78° |
| 2026-05-05 15:48 | 44.57005 | 2.98466 | 26916 ft | 291 kts | 78° |
| 2026-05-05 15:49 | 44.57594 | 3.01191 | 26912 ft | 291 kts | 78° |
| 2026-05-05 15:49 | 44.58178 | 3.03895 | 26917 ft | 291 kts | 78° |
| 2026-05-05 15:49 | 44.58762 | 3.06612 | 26914 ft | 290 kts | 78° |
| 2026-05-05 15:49 | 44.59343 | 3.09319 | 26914 ft | 290 kts | 78° |
| 2026-05-05 15:50 | 44.59928 | 3.12040 | 26906 ft | 290 kts | 78° |
| 2026-05-05 15:50 | 44.60508 | 3.14744 | 26910 ft | 290 kts | 78° |
| 2026-05-05 15:50 | 44.61270 | 3.17379 | 26913 ft | 295 kts | 64° |
| 2026-05-05 15:50 | 44.62287 | 3.19837 | 26906 ft | 295 kts | 64° |
| 2026-05-05 15:51 | 44.63291 | 3.22342 | 26909 ft | 295 kts | 64° |
| 2026-05-05 15:51 | 44.64289 | 3.24854 | 26901 ft | 295 kts | 64° |
| 2026-05-05 15:51 | 44.65296 | 3.27362 | 26901 ft | 295 kts | 64° |
| 2026-05-05 15:51 | 44.66305 | 3.29868 | 26900 ft | 294 kts | 64° |
| 2026-05-05 15:52 | 44.67310 | 3.32375 | 26900 ft | 295 kts | 64° |
| 2026-05-05 15:52 | 44.68314 | 3.34885 | 26900 ft | 295 kts | 64° |
| 2026-05-05 15:52 | 44.69316 | 3.37391 | 26896 ft | 295 kts | 64° |
| 2026-05-05 15:52 | 44.70321 | 3.39905 | 26900 ft | 295 kts | 64° |
| 2026-05-05 15:53 | 44.71324 | 3.42417 | 26896 ft | 295 kts | 64° |
| 2026-05-05 15:53 | 44.72328 | 3.44935 | 26891 ft | 295 kts | 64° |
| 2026-05-05 15:53 | 44.73331 | 3.47452 | 26891 ft | 295 kts | 64° |
| 2026-05-05 15:53 | 44.74333 | 3.49966 | 26895 ft | 295 kts | 64° |
| 2026-05-05 15:54 | 44.75331 | 3.52476 | 26894 ft | 295 kts | 64° |
| 2026-05-05 15:54 | 44.76334 | 3.54999 | 26886 ft | 295 kts | 64° |
| 2026-05-05 15:54 | 44.77332 | 3.57513 | 26885 ft | 295 kts | 64° |
| 2026-05-05 15:54 | 44.78331 | 3.60029 | 26885 ft | 294 kts | 64° |
| 2026-05-05 15:55 | 44.79005 | 3.61728 | 26884 ft | 294 kts | 64° |
| 2026-05-05 15:55 | 44.80320 | 3.65048 | 26879 ft | 294 kts | 64° |
| 2026-05-05 15:55 | 44.80991 | 3.66744 | 26889 ft | 293 kts | 64° |
| 2026-05-05 15:55 | 44.82306 | 3.70068 | 26880 ft | 293 kts | 64° |
| 2026-05-05 15:56 | 44.82975 | 3.71759 | 26881 ft | 293 kts | 64° |
| 2026-05-05 15:56 | 44.83963 | 3.74266 | 26881 ft | 293 kts | 64° |
| 2026-05-05 15:56 | 44.84954 | 3.76777 | 26880 ft | 293 kts | 64° |
| 2026-05-05 15:56 | 44.85944 | 3.79289 | 26879 ft | 293 kts | 64° |
| 2026-05-05 15:57 | 44.86934 | 3.81802 | 26876 ft | 293 kts | 64° |
| 2026-05-05 15:57 | 44.87921 | 3.84311 | 26877 ft | 293 kts | 64° |
| 2026-05-05 15:57 | 44.88893 | 3.86787 | 26872 ft | 292 kts | 64° |
| 2026-05-05 15:57 | 44.89878 | 3.89295 | 26877 ft | 292 kts | 64° |
| 2026-05-05 15:58 | 44.90863 | 3.91803 | 26875 ft | 292 kts | 65° |
| 2026-05-05 15:58 | 44.91846 | 3.94310 | 26872 ft | 292 kts | 65° |
| 2026-05-05 15:58 | 44.92844 | 3.96861 | 26878 ft | 292 kts | 65° |
| 2026-05-05 15:58 | 44.93811 | 3.99333 | 26876 ft | 292 kts | 65° |
| 2026-05-05 15:59 | 44.94795 | 4.01848 | 26871 ft | 292 kts | 65° |
| 2026-05-05 15:59 | 44.95774 | 4.04356 | 26872 ft | 292 kts | 65° |
| 2026-05-05 15:59 | 44.96755 | 4.06870 | 26878 ft | 292 kts | 65° |
| 2026-05-05 15:59 | 44.97736 | 4.09386 | 26871 ft | 293 kts | 65° |
| 2026-05-05 16:00 | 44.98718 | 4.11908 | 26872 ft | 293 kts | 65° |
| 2026-05-05 16:00 | 44.99699 | 4.14427 | 26875 ft | 293 kts | 65° |
| 2026-05-05 16:00 | 45.00681 | 4.16951 | 26871 ft | 293 kts | 65° |
| 2026-05-05 16:00 | 45.01659 | 4.19471 | 26876 ft | 293 kts | 65° |
| 2026-05-05 16:01 | 45.02638 | 4.21995 | 26871 ft | 293 kts | 65° |
| 2026-05-05 16:01 | 45.03620 | 4.24530 | 26874 ft | 294 kts | 65° |
| 2026-05-05 16:01 | 45.04603 | 4.27069 | 26869 ft | 295 kts | 65° |
| 2026-05-05 16:01 | 45.05584 | 4.29608 | 26873 ft | 294 kts | 65° |
| 2026-05-05 16:02 | 45.06561 | 4.32133 | 26876 ft | 294 kts | 65° |
| 2026-05-05 16:02 | 45.07543 | 4.34676 | 26878 ft | 294 kts | 65° |
| 2026-05-05 16:02 | 45.08522 | 4.37212 | 26876 ft | 294 kts | 65° |
| 2026-05-05 16:02 | 45.09502 | 4.39753 | 26877 ft | 294 kts | 65° |
| 2026-05-05 16:03 | 45.10479 | 4.42288 | 26874 ft | 294 kts | 65° |
| 2026-05-05 16:03 | 45.11457 | 4.44829 | 26877 ft | 293 kts | 65° |
| 2026-05-05 16:03 | 45.12430 | 4.47359 | 26874 ft | 294 kts | 65° |
| 2026-05-05 16:03 | 45.13405 | 4.49897 | 26888 ft | 293 kts | 65° |
| 2026-05-05 16:04 | 45.14379 | 4.52436 | 26889 ft | 294 kts | 65° |
| 2026-05-05 16:04 | 45.15353 | 4.54978 | 26887 ft | 293 kts | 65° |
| 2026-05-05 16:04 | 45.16323 | 4.57510 | 26889 ft | 294 kts | 65° |
| 2026-05-05 16:04 | 45.17300 | 4.60062 | 26885 ft | 293 kts | 65° |
| 2026-05-05 16:05 | 45.18272 | 4.62604 | 26884 ft | 293 kts | 65° |
| 2026-05-05 16:05 | 45.19240 | 4.65140 | 26878 ft | 292 kts | 65° |
| 2026-05-05 16:05 | 45.20207 | 4.67671 | 26879 ft | 292 kts | 65° |
| 2026-05-05 16:05 | 45.21174 | 4.70206 | 26880 ft | 292 kts | 65° |
| 2026-05-05 16:06 | 45.22139 | 4.72740 | 26878 ft | 292 kts | 65° |
| 2026-05-05 16:06 | 45.23103 | 4.75273 | 26877 ft | 291 kts | 65° |
| 2026-05-05 16:06 | 45.24052 | 4.77768 | 26876 ft | 291 kts | 66° |
| 2026-05-05 16:06 | 45.25024 | 4.80326 | 26875 ft | 291 kts | 65° |
| 2026-05-05 16:07 | 45.25985 | 4.82857 | 26876 ft | 291 kts | 65° |
| 2026-05-05 16:07 | 45.26946 | 4.85390 | 26886 ft | 292 kts | 65° |
| 2026-05-05 16:07 | 45.27901 | 4.87912 | 26892 ft | 296 kts | 66° |
| 2026-05-05 16:07 | 45.28876 | 4.90491 | 26832 ft | 297 kts | 65° |
| 2026-05-05 16:08 | 45.29858 | 4.93083 | 26597 ft | 292 kts | 65° |
| 2026-05-05 16:08 | 45.30801 | 4.95578 | 26335 ft | 289 kts | 65° |
| 2026-05-05 16:08 | 45.31747 | 4.98083 | 26084 ft | 287 kts | 65° |
| 2026-05-05 16:08 | 45.32685 | 5.00572 | 25821 ft | 285 kts | 65° |
| 2026-05-05 16:09 | 45.33617 | 5.03045 | 25558 ft | 283 kts | 65° |
| 2026-05-05 16:09 | 45.34544 | 5.05508 | 25301 ft | 282 kts | 65° |
| 2026-05-05 16:09 | 45.35468 | 5.07964 | 25053 ft | 281 kts | 65° |
| 2026-05-05 16:09 | 45.36386 | 5.10406 | 24810 ft | 279 kts | 65° |
| 2026-05-05 16:10 | 45.37299 | 5.12838 | 24568 ft | 278 kts | 65° |
| 2026-05-05 16:10 | 45.38207 | 5.15257 | 24324 ft | 277 kts | 65° |
| 2026-05-05 16:10 | 45.39111 | 5.17671 | 24088 ft | 276 kts | 65° |
| 2026-05-05 16:10 | 45.40011 | 5.20074 | 23845 ft | 275 kts | 65° |
| 2026-05-05 16:11 | 45.40906 | 5.22469 | 23617 ft | 273 kts | 65° |
| 2026-05-05 16:11 | 45.43566 | 5.29592 | 22854 ft | 269 kts | 65° |
| 2026-05-05 16:12 | 45.44438 | 5.31933 | 22601 ft | 268 kts | 65° |
| 2026-05-05 16:12 | 45.46186 | 5.36629 | 22094 ft | 268 kts | 65° |
| 2026-05-05 16:13 | 45.48951 | 5.43498 | 21345 ft | 269 kts | 48° |
| 2026-05-05 16:13 | 45.50393 | 5.45178 | 21103 ft | 269 kts | 31° |
| 2026-05-05 16:13 | 45.52026 | 5.46510 | 20732 ft | 274 kts | 29° |
| 2026-05-05 16:14 | 45.55353 | 5.49274 | 19868 ft | 278 kts | 30° |
| 2026-05-05 16:14 | 45.58693 | 5.52049 | 19068 ft | 276 kts | 30° |
| 2026-05-05 16:15 | 45.61887 | 5.54702 | 18267 ft | 259 kts | 30° |
| 2026-05-05 16:15 | 45.64960 | 5.57261 | 17374 ft | 253 kts | 30° |
| 2026-05-05 16:16 | 45.67986 | 5.59757 | 16547 ft | 248 kts | 27° |
| 2026-05-05 16:16 | 45.71140 | 5.62244 | 15771 ft | 265 kts | 29° |
| 2026-05-05 16:17 | 45.74385 | 5.64817 | 15004 ft | 268 kts | 28° |
| 2026-05-05 16:17 | 45.76015 | 5.66098 | 14629 ft | 267 kts | 28° |
| 2026-05-05 16:18 | 45.79256 | 5.68665 | 13918 ft | 265 kts | 28° |
| 2026-05-05 16:18 | 45.80866 | 5.69939 | 13570 ft | 264 kts | 28° |
| 2026-05-05 16:18 | 45.84059 | 5.72470 | 12881 ft | 259 kts | 28° |
| 2026-05-05 16:19 | 45.85576 | 5.73674 | 12871 ft | 248 kts | 28° |
| 2026-05-05 16:19 | 45.87093 | 5.74873 | 12881 ft | 244 kts | 28° |
| 2026-05-05 16:19 | 45.89445 | 5.78224 | 12867 ft | 238 kts | 57° |
| 2026-05-05 16:20 | 45.91401 | 5.82066 | 12879 ft | 239 kts | 56° |
| 2026-05-05 16:20 | 45.93425 | 5.86065 | 12881 ft | 250 kts | 56° |
| 2026-05-05 16:21 | 45.95489 | 5.90081 | 12869 ft | 252 kts | 51° |
| 2026-05-05 16:22 | 45.99204 | 5.95409 | 12863 ft | 252 kts | 46° |
| 2026-05-05 16:22 | 46.01672 | 5.98962 | 12776 ft | 248 kts | 46° |
| 2026-05-05 16:23 | 46.04072 | 6.02417 | 11965 ft | 240 kts | 46° |
| 2026-05-05 16:23 | 46.05244 | 6.04107 | 11654 ft | 237 kts | 46° |
| 2026-05-05 16:23 | 46.07562 | 6.07452 | 11032 ft | 235 kts | 46° |
| 2026-05-05 16:24 | 46.08713 | 6.09116 | 10673 ft | 234 kts | 46° |
| 2026-05-05 16:24 | 46.09861 | 6.10774 | 10355 ft | 233 kts | 46° |
| 2026-05-05 16:24 | 46.12117 | 6.14127 | 9689 ft | 232 kts | 47° |
| 2026-05-05 16:25 | 46.13244 | 6.15797 | 9330 ft | 232 kts | 47° |
| 2026-05-05 16:25 | 46.15472 | 6.19097 | 8895 ft | 229 kts | 47° |
| 2026-05-05 16:25 | 46.16598 | 6.20767 | 8899 ft | 235 kts | 46° |
| 2026-05-05 16:26 | 46.18875 | 6.24125 | 8792 ft | 223 kts | 46° |
| 2026-05-05 16:26 | 46.21018 | 6.27210 | 8342 ft | 214 kts | 46° |
| 2026-05-05 16:27 | 46.22071 | 6.28726 | 8119 ft | 213 kts | 46° |
| 2026-05-05 16:27 | 46.23121 | 6.30230 | 7891 ft | 212 kts | 46° |
| 2026-05-05 16:27 | 46.24168 | 6.31726 | 7666 ft | 211 kts | 46° |
| 2026-05-05 16:27 | 46.25215 | 6.33211 | 7445 ft | 211 kts | 46° |
| 2026-05-05 16:28 | 46.26257 | 6.34693 | 7199 ft | 210 kts | 46° |
| 2026-05-05 16:28 | 46.27292 | 6.36173 | 6969 ft | 212 kts | 46° |
| 2026-05-05 16:28 | 46.28381 | 6.37722 | 6904 ft | 223 kts | 46° |
| 2026-05-05 16:28 | 46.29492 | 6.39304 | 6970 ft | 223 kts | 46° |
| 2026-05-05 16:29 | 46.30602 | 6.40889 | 6993 ft | 226 kts | 46° |
| 2026-05-05 16:29 | 46.31787 | 6.42376 | 6994 ft | 227 kts | 30° |
| 2026-05-05 16:29 | 46.33297 | 6.42919 | 6987 ft | 225 kts | 355° |
| 2026-05-05 16:29 | 46.34686 | 6.42322 | 6899 ft | 192 kts | 327° |
| 2026-05-05 16:30 | 46.35791 | 6.41394 | 6637 ft | 181 kts | 324° |
| 2026-05-05 16:30 | 46.36872 | 6.40460 | 6259 ft | 180 kts | 324° |
| 2026-05-05 16:30 | 46.37940 | 6.39533 | 5862 ft | 178 kts | 324° |
| 2026-05-05 16:30 | 46.38787 | 6.38323 | 5444 ft | 168 kts | 289° |
| 2026-05-05 16:31 | 46.38895 | 6.36731 | 5042 ft | 158 kts | 256° |
| 2026-05-05 16:31 | 46.38682 | 6.35181 | 4656 ft | 157 kts | 254° |
| 2026-05-05 16:31 | 46.38459 | 6.33637 | 4262 ft | 156 kts | 255° |
| 2026-05-05 16:31 | 46.38076 | 6.32217 | 4002 ft | 145 kts | 234° |
| 2026-05-05 16:32 | 46.37460 | 6.31146 | 3992 ft | 135 kts | 227° |
| 2026-05-05 16:32 | 46.36841 | 6.30153 | 3994 ft | 132 kts | 225° |
| 2026-05-05 16:32 | 46.36280 | 6.29290 | 3996 ft | 130 kts | 224° |
| 2026-05-05 16:32 | 46.35596 | 6.28263 | 4011 ft | 153 kts | 224° |
| 2026-05-05 16:33 | 46.34824 | 6.27120 | 4011 ft | 163 kts | 225° |
| 2026-05-05 16:33 | 46.34016 | 6.25927 | 3898 ft | 170 kts | 224° |
| 2026-05-05 16:33 | 46.33201 | 6.24721 | 3676 ft | 160 kts | 225° |
| 2026-05-05 16:33 | 46.32458 | 6.23631 | 3469 ft | 147 kts | 224° |
| 2026-05-05 16:34 | 46.31780 | 6.22626 | 3273 ft | 131 kts | 225° |
| 2026-05-05 16:34 | 46.31168 | 6.21723 | 3117 ft | 124 kts | 225° |
| 2026-05-05 16:34 | 46.30577 | 6.20860 | 2960 ft | 119 kts | 225° |
| 2026-05-05 16:34 | 46.30000 | 6.20008 | 2796 ft | 118 kts | 224° |
| 2026-05-05 16:35 | 46.29446 | 6.19188 | 2646 ft | 109 kts | 225° |
| 2026-05-05 16:35 | 46.28939 | 6.18438 | 2503 ft | 101 kts | 224° |
| 2026-05-05 16:35 | 46.28448 | 6.17716 | 2362 ft | 101 kts | 226° |
| 2026-05-05 16:35 | 46.27972 | 6.17014 | 2229 ft | 95 kts | 223° |
| 2026-05-05 16:36 | 46.27497 | 6.16323 | 2102 ft | 99 kts | 226° |
| 2026-05-05 16:36 | 46.27015 | 6.15613 | 1962 ft | 98 kts | 226° |
| 2026-05-05 16:36 | 46.26543 | 6.14921 | 1838 ft | 98 kts | 226° |
| 2026-05-05 16:36 | 46.26058 | 6.14223 | 1700 ft | 100 kts | 229° |
| 2026-05-05 16:37 | 46.25576 | 6.13501 | 1552 ft | 100 kts | 228° |
| 2026-05-05 16:37 | 46.25088 | 6.12788 | 1433 ft | 99 kts | 229° |
| 2026-05-05 16:37 | 46.24631 | 6.12112 | 1369 ft | 82 kts | 226° |
| 2026-05-05 16:37 | 46.24334 | 6.11667 | 1367 ft | 36 kts | 224° |
| 2026-05-05 16:38 | 46.24223 | 6.11507 | 1369 ft | 21 kts | 224° |
| 2026-05-05 16:38 | 46.24097 | 6.11322 | 1371 ft | 30 kts | 226° |
| 2026-05-05 16:38 | 46.23939 | 6.11090 | 1374 ft | 35 kts | 225° |
| 2026-05-05 16:38 | 46.23879 | 6.10939 | 1376 ft | 6 kts | 318° |
| 2026-05-05 16:39 | 46.23944 | 6.10847 | 1378 ft | 20 kts | 315° |
| 2026-05-05 16:39 | 46.24042 | 6.10697 | 1384 ft | 9 kts | 277° |
| 2026-05-05 16:39 | 46.24035 | 6.10675 | 1385 ft | 4 kts | 227° |
| 2026-05-05 16:39 | 46.23978 | 6.10591 | 1386 ft | 13 kts | 225° |
| 2026-05-05 16:40 | 46.23952 | 6.10554 | 1386 ft | 5 kts | 226° |
| 2026-05-05 16:40 | 46.23895 | 6.10464 | 1386 ft | 19 kts | 225° |
| 2026-05-05 16:40 | 46.23817 | 6.10355 | 1384 ft | 26 kts | 225° |
| 2026-05-05 16:40 | 46.23718 | 6.10211 | 1387 ft | 16 kts | 226° |
| 2026-05-05 16:41 | 46.23657 | 6.10120 | 1397 ft | 9 kts | 224° |
| 2026-05-05 16:41 | 46.23616 | 6.10060 | 1392 ft | 10 kts | 226° |
| 2026-05-05 16:41 | 46.23600 | 6.10036 | 1398 ft | 0 kts | 240° |
| 2026-05-05 16:42 | 46.23599 | 6.10022 | 1393 ft | 0 kts | 297° |
| 2026-05-05 16:42 | 46.23615 | 6.10000 | 1399 ft | 5 kts | 315° |
| 2026-05-05 16:42 | 46.23617 | 6.09997 | 1394 ft | 0 kts | 315° |